createdAt,value
2022-08-10T00:00:36.581Z,21.20
2022-08-10T00:03:04.511Z,21.30
2022-08-10T00:05:43.455Z,21.20
2022-08-10T00:08:23.793Z,21.20
2022-08-10T00:10:55.863Z,21.30
2022-08-10T00:13:23.845Z,21.30
2022-08-10T00:15:53.548Z,21.20
2022-08-10T00:18:34.662Z,21.00
2022-08-10T00:21:12.438Z,21.10
2022-08-10T00:23:39.767Z,21.20
2022-08-10T00:26:06.972Z,21.30
2022-08-10T00:28:34.121Z,21.20
2022-08-10T00:31:01.205Z,21.20
2022-08-10T00:33:28.484Z,21.30
2022-08-10T00:35:55.332Z,21.30
2022-08-10T00:38:22.604Z,21.40
2022-08-10T00:40:49.453Z,21.40
2022-08-10T00:43:23.348Z,21.50
2022-08-10T00:45:59.208Z,21.50
2022-08-10T00:48:31.040Z,21.60
2022-08-10T00:50:59.576Z,21.60
2022-08-10T00:53:29.944Z,21.60
2022-08-10T00:57:02.041Z,21.60
2022-08-10T00:58:44.951Z,21.60
2022-08-10T01:02:07.614Z,21.60
2022-08-10T01:04:40.158Z,21.60
2022-08-10T01:07:00.681Z,21.60
2022-08-10T01:09:27.841Z,21.60
2022-08-10T01:12:40.517Z,21.60
2022-08-10T01:15:10.169Z,21.50
2022-08-10T01:17:50.011Z,21.50
2022-08-10T01:20:30.253Z,21.40
2022-08-10T01:23:22.701Z,21.30
2022-08-10T01:26:11.033Z,21.30
2022-08-10T01:29:10.652Z,21.30
2022-08-10T01:31:50.150Z,21.30
2022-08-10T01:34:30.081Z,21.30
2022-08-10T01:37:05.251Z,21.40
2022-08-10T01:39:40.456Z,21.40
2022-08-10T01:42:11.618Z,21.40
2022-08-10T01:44:49.736Z,21.30
2022-08-10T01:47:37.996Z,21.40
2022-08-10T01:50:13.617Z,21.40
2022-08-10T01:52:43.673Z,21.50
2022-08-10T01:55:13.350Z,21.50
2022-08-10T01:57:42.068Z,21.50
2022-08-10T02:00:10.101Z,21.50
2022-08-10T02:02:39.634Z,21.40
2022-08-10T02:05:08.837Z,21.30
2022-08-10T02:07:38.885Z,21.10
2022-08-10T02:10:10.869Z,21.00
2022-08-10T02:12:39.525Z,20.80
2022-08-10T02:15:12.781Z,20.70
2022-08-10T02:18:00.782Z,20.70
2022-08-10T02:20:34.033Z,20.80
2022-08-10T02:23:08.510Z,20.80
2022-08-10T02:25:42.526Z,20.70
2022-08-10T02:28:30.288Z,20.60
2022-08-10T02:31:23.015Z,20.50
2022-08-10T02:33:57.348Z,20.40
2022-08-10T02:36:32.831Z,20.20
2022-08-10T02:39:03.710Z,20.10
2022-08-10T02:45:08.285Z,20.20
2022-08-10T02:45:27.326Z,20.30
2022-08-10T02:47:58.521Z,20.40
2022-08-10T02:50:33.796Z,20.40
2022-08-10T02:53:55.500Z,20.40
2022-08-10T02:56:20.262Z,20.50
2022-08-10T02:58:55.432Z,20.50
2022-08-10T03:01:27.082Z,20.40
2022-08-10T03:03:59.717Z,20.30
2022-08-10T03:06:33.884Z,20.30
2022-08-10T03:09:03.448Z,20.30
2022-08-10T03:12:35.954Z,20.30
2022-08-10T03:14:21.369Z,20.40
2022-08-10T03:16:50.025Z,20.30
2022-08-10T03:20:35.793Z,20.30
2022-08-10T03:22:08.519Z,20.40
2022-08-10T03:24:36.826Z,20.40
2022-08-10T03:27:05.011Z,20.40
2022-08-10T03:30:31.733Z,20.50
2022-08-10T03:32:20.627Z,20.50
2022-08-10T03:34:48.590Z,20.50
2022-08-10T03:37:15.386Z,20.50
2022-08-10T03:39:42.557Z,20.60
2022-08-10T03:42:12.911Z,20.60
2022-08-10T03:44:42.062Z,20.60
2022-08-10T03:47:16.457Z,20.60
2022-08-10T03:49:45.132Z,20.60
2022-08-10T03:52:13.204Z,20.70
2022-08-10T03:54:41.534Z,20.80
2022-08-10T03:57:08.842Z,20.80
2022-08-10T03:59:36.611Z,20.90
2022-08-10T04:02:46.823Z,20.90
2022-08-10T04:04:53.299Z,20.90
2022-08-10T04:07:21.740Z,21.00
2022-08-10T04:09:55.021Z,21.00
2022-08-10T04:12:23.091Z,21.00
2022-08-10T04:14:52.985Z,21.10
2022-08-10T04:18:03.006Z,21.10
2022-08-10T04:20:26.013Z,21.10
2022-08-10T04:22:59.526Z,21.20
2022-08-10T04:25:28.153Z,21.20
2022-08-10T04:27:55.312Z,21.30
2022-08-10T04:30:23.668Z,21.20
2022-08-10T04:32:56.647Z,21.20
2022-08-10T04:35:26.682Z,21.20
2022-08-10T04:37:55.832Z,21.20
2022-08-10T04:40:28.910Z,21.20
2022-08-10T04:43:02.413Z,21.20
2022-08-10T04:45:47.896Z,21.10
2022-08-10T04:48:43.227Z,21.10
2022-08-10T04:51:06.064Z,21.10
2022-08-10T04:53:34.291Z,21.10
2022-08-10T04:56:21.453Z,21.10
2022-08-10T04:58:59.198Z,21.10
2022-08-10T05:01:26.125Z,21.10
2022-08-10T05:04:34.421Z,21.20
2022-08-10T05:06:40.141Z,21.30
2022-08-10T05:09:07.365Z,21.30
2022-08-10T05:11:34.330Z,21.30
2022-08-10T05:14:02.428Z,21.40
2022-08-10T05:16:30.711Z,21.40
2022-08-10T05:18:59.611Z,21.40
2022-08-10T05:22:03.273Z,21.40
2022-08-10T05:24:13.389Z,21.40
2022-08-10T05:27:00.490Z,21.50
2022-08-10T05:29:27.058Z,21.60
2022-08-10T05:31:55.076Z,21.60
2022-08-10T05:34:26.677Z,21.60
2022-08-10T05:36:55.344Z,21.60
2022-08-10T05:39:31.984Z,21.60
2022-08-10T05:42:01.512Z,21.70
2022-08-10T05:44:29.648Z,21.70
2022-08-10T05:46:57.299Z,21.60
2022-08-10T05:49:24.897Z,21.70
2022-08-10T05:51:52.416Z,21.70
2022-08-10T05:54:20.124Z,21.70
2022-08-10T05:56:55.678Z,21.60
2022-08-10T06:00:11.041Z,21.60
2022-08-10T06:02:35.712Z,21.70
2022-08-10T06:05:19.240Z,21.60
2022-08-10T06:07:53.264Z,21.70
2022-08-10T06:10:32.551Z,21.70
2022-08-10T06:13:26.728Z,21.70
2022-08-10T06:16:00.104Z,21.70
2022-08-10T06:18:27.268Z,21.60
2022-08-10T06:20:55.731Z,21.50
2022-08-10T06:23:25.622Z,21.60
2022-08-10T06:26:11.097Z,21.60
2022-08-10T06:28:44.061Z,21.60
2022-08-10T06:31:47.793Z,21.70
2022-08-10T06:34:20.409Z,21.70
2022-08-10T06:36:48.611Z,21.80
2022-08-10T06:42:40.875Z,21.80
2022-08-10T06:45:15.531Z,21.80
2022-08-10T06:47:47.337Z,21.90
2022-08-10T06:50:34.913Z,21.90
2022-08-10T06:53:12.532Z,22.00
2022-08-10T06:55:55.097Z,21.90
2022-08-10T06:58:33.988Z,21.90
2022-08-10T07:01:05.367Z,21.90
2022-08-10T07:03:38.910Z,21.70
2022-08-10T07:06:07.760Z,21.60
2022-08-10T07:08:36.837Z,21.60
2022-08-10T07:11:10.037Z,21.50
2022-08-10T07:14:16.431Z,21.60
2022-08-10T07:16:28.692Z,21.60
2022-08-10T07:18:58.845Z,21.60
2022-08-10T07:21:27.173Z,21.70
2022-08-10T07:24:00.469Z,21.80
2022-08-10T07:26:30.296Z,21.90
2022-08-10T07:28:58.291Z,22.00
2022-08-10T07:31:55.215Z,22.20
2022-08-10T07:34:28.464Z,22.30
2022-08-10T07:37:02.840Z,22.50
2022-08-10T07:39:58.111Z,22.50
2022-08-10T07:42:24.335Z,22.50
2022-08-10T07:44:52.302Z,22.50
2022-08-10T07:47:52.810Z,22.50
2022-08-10T07:50:14.191Z,22.50
2022-08-10T07:52:42.514Z,22.50
2022-08-10T07:55:15.088Z,22.40
2022-08-10T07:57:44.451Z,22.40
2022-08-10T08:00:12.680Z,22.60
2022-08-10T08:02:51.868Z,22.70
2022-08-10T08:05:51.803Z,22.70
2022-08-10T08:08:10.655Z,22.70
2022-08-10T08:10:38.656Z,22.80
2022-08-10T08:13:06.011Z,22.80
2022-08-10T08:16:17.879Z,22.80
2022-08-10T08:18:25.314Z,22.90
2022-08-10T08:20:54.408Z,22.80
2022-08-10T08:24:06.196Z,22.70
2022-08-10T08:26:11.699Z,22.70
2022-08-10T08:28:45.609Z,22.70
2022-08-10T08:31:15.542Z,22.70
2022-08-10T08:33:45.672Z,22.60
2022-08-10T08:36:15.795Z,22.60
2022-08-10T08:38:43.904Z,22.50
2022-08-10T08:42:06.185Z,22.50
2022-08-10T08:44:36.184Z,22.50
2022-08-10T08:48:03.557Z,22.50
2022-08-10T08:50:14.815Z,22.60
2022-08-10T08:52:59.314Z,22.50
2022-08-10T08:56:05.722Z,22.40
2022-08-10T08:58:44.052Z,22.30
2022-08-10T09:01:41.317Z,22.30
2022-08-10T09:04:42.750Z,22.30
2022-08-10T09:08:02.234Z,22.30
2022-08-10T09:10:44.781Z,22.30
2022-08-10T09:13:29.585Z,22.30
2022-08-10T09:16:17.585Z,22.40
2022-08-10T09:19:03.694Z,22.30
2022-08-10T09:21:55.183Z,22.20
2022-08-10T09:24:43.744Z,22.20
2022-08-10T09:27:23.827Z,22.20
2022-08-10T09:30:02.389Z,22.20
2022-08-10T09:36:16.200Z,22.30
2022-08-10T09:36:25.145Z,22.20
2022-08-10T09:38:29.044Z,22.10
2022-08-10T09:41:25.781Z,22.10
2022-08-10T09:44:11.120Z,22.00
2022-08-10T09:48:00.853Z,21.90
2022-08-10T09:51:22.690Z,21.80
2022-08-10T09:54:06.164Z,21.70
2022-08-10T09:57:12.000Z,21.70
2022-08-10T10:00:10.422Z,21.70
2022-08-10T10:02:49.020Z,21.60
2022-08-10T10:05:25.209Z,21.60
2022-08-10T10:08:26.286Z,21.50
2022-08-10T10:11:19.181Z,21.50
2022-08-10T10:14:07.262Z,21.40
2022-08-10T10:16:46.201Z,21.40
2022-08-10T10:19:40.781Z,21.40
2022-08-10T10:22:16.100Z,21.30
2022-08-10T10:25:19.465Z,21.30
2022-08-10T10:28:13.479Z,21.40
2022-08-10T10:31:03.763Z,21.50
2022-08-10T10:33:56.962Z,21.50
2022-08-10T10:36:24.583Z,21.50
2022-08-10T10:38:54.418Z,21.60
2022-08-10T10:41:55.943Z,21.70
2022-08-10T10:44:32.430Z,21.70
2022-08-10T10:47:12.985Z,21.90
2022-08-10T10:49:45.700Z,22.00
2022-08-10T10:52:32.361Z,22.00
2022-08-10T10:55:15.076Z,22.10
2022-08-10T10:57:59.056Z,22.10
2022-08-10T11:00:42.292Z,22.10
2022-08-10T11:03:33.829Z,22.30
2022-08-10T11:06:18.828Z,22.50
2022-08-10T11:08:52.126Z,22.50
2022-08-10T11:12:00.514Z,22.60
2022-08-10T11:14:39.258Z,22.70
2022-08-10T11:17:20.207Z,22.90
2022-08-10T11:20:03.286Z,23.00
2022-08-10T11:22:40.284Z,23.10
2022-08-10T11:25:16.073Z,23.20
2022-08-10T11:28:01.272Z,23.30
2022-08-10T11:30:44.585Z,23.20
2022-08-10T11:33:30.925Z,23.20
2022-08-10T11:36:28.964Z,23.20
2022-08-10T11:39:17.922Z,23.30
2022-08-10T11:42:07.778Z,23.40
2022-08-10T11:44:46.187Z,23.40
2022-08-10T11:47:19.824Z,23.50
2022-08-10T11:50:12.952Z,23.50
2022-08-10T11:52:56.556Z,23.50
2022-08-10T11:55:25.704Z,23.50
2022-08-10T11:58:01.834Z,23.50
2022-08-10T12:00:34.301Z,23.60
2022-08-10T12:03:05.894Z,23.70
2022-08-10T12:05:52.580Z,23.90
2022-08-10T12:10:03.451Z,23.90
2022-08-10T12:11:25.353Z,24.10
2022-08-10T12:14:23.193Z,24.20
2022-08-10T12:16:57.409Z,24.30
2022-08-10T12:20:02.522Z,24.50
2022-08-10T12:22:46.261Z,24.60
2022-08-10T12:25:58.016Z,24.80
2022-08-10T12:28:49.295Z,24.80
2022-08-10T12:31:17.972Z,24.80
2022-08-10T12:34:01.180Z,24.80
2022-08-10T12:36:41.464Z,24.80
2022-08-10T12:39:19.978Z,24.80
2022-08-10T12:42:39.367Z,24.80
2022-08-10T12:45:16.268Z,24.80
2022-08-10T12:48:12.255Z,24.80
2022-08-10T12:50:43.714Z,24.90
2022-08-10T12:53:44.376Z,24.90
2022-08-10T12:56:11.152Z,25.10
2022-08-10T12:58:59.870Z,25.10
2022-08-10T13:02:07.727Z,25.20
2022-08-10T13:04:35.382Z,25.20
2022-08-10T13:07:04.599Z,25.30
2022-08-10T13:09:33.475Z,25.60
2022-08-10T13:12:35.847Z,25.80
2022-08-10T13:14:57.800Z,26.20
2022-08-10T13:17:39.072Z,26.50
2022-08-10T13:20:18.830Z,26.60
2022-08-10T13:22:48.768Z,26.50
2022-08-10T13:25:34.635Z,26.50
2022-08-10T13:28:37.000Z,26.50
2022-08-10T13:30:54.046Z,26.60
2022-08-10T13:34:39.343Z,26.80
2022-08-10T13:36:16.093Z,26.90
2022-08-10T13:38:48.761Z,26.80
2022-08-10T13:41:18.381Z,26.70
2022-08-10T13:43:54.630Z,26.50
2022-08-10T13:46:23.016Z,26.50
2022-08-10T13:48:53.730Z,26.40
2022-08-10T13:51:54.185Z,26.50
2022-08-10T13:54:17.600Z,26.40
2022-08-10T13:56:47.750Z,26.30
2022-08-10T13:59:16.586Z,26.20
2022-08-10T14:01:52.203Z,26.20
2022-08-10T14:04:20.181Z,26.10
2022-08-10T14:06:54.505Z,26.10
2022-08-10T14:09:30.177Z,26.10
2022-08-10T14:11:58.722Z,26.20
2022-08-10T14:14:28.105Z,26.30
2022-08-10T14:16:57.265Z,26.50
2022-08-10T14:19:31.688Z,26.60
2022-08-10T14:22:00.008Z,26.80
2022-08-10T14:24:29.153Z,27.00
2022-08-10T14:27:10.053Z,27.10
2022-08-10T14:29:44.152Z,27.10
2022-08-10T14:32:12.856Z,27.10
2022-08-10T14:36:16.822Z,27.10
2022-08-10T14:37:37.601Z,27.00
2022-08-10T14:40:13.882Z,27.00
2022-08-10T14:43:04.510Z,27.00
2022-08-10T14:45:37.082Z,27.00
2022-08-10T14:48:31.810Z,27.10
2022-08-10T14:50:59.968Z,27.00
2022-08-10T14:53:34.381Z,27.00
2022-08-10T14:56:26.962Z,26.80
2022-08-10T14:59:07.087Z,26.60
2022-08-10T15:01:59.817Z,26.50
2022-08-10T15:04:29.381Z,26.40
2022-08-10T15:07:04.123Z,26.20
2022-08-10T15:10:00.781Z,26.10
2022-08-10T15:12:39.179Z,26.00
2022-08-10T15:15:17.909Z,25.80
2022-08-10T15:17:52.817Z,25.50
2022-08-10T15:20:23.361Z,25.30
2022-08-10T15:22:55.985Z,25.20
2022-08-10T15:25:26.136Z,25.10
2022-08-10T15:28:06.371Z,25.00
2022-08-10T15:30:56.288Z,24.90
2022-08-10T15:34:04.410Z,25.00
2022-08-10T15:37:36.146Z,25.00
2022-08-10T15:40:20.914Z,25.00
2022-08-10T15:42:34.188Z,24.90
2022-08-10T15:45:01.424Z,24.70
2022-08-10T15:47:45.797Z,24.60
2022-08-10T15:50:28.428Z,24.50
2022-08-10T15:53:03.744Z,24.40
2022-08-10T15:55:44.069Z,24.20
2022-08-10T15:58:18.612Z,24.10
2022-08-10T16:01:00.444Z,23.90
2022-08-10T16:03:44.822Z,23.70
2022-08-10T16:06:46.942Z,23.60
2022-08-10T16:10:11.052Z,23.50
2022-08-10T16:12:18.688Z,23.30
2022-08-10T16:14:59.690Z,23.10
2022-08-10T16:17:28.230Z,23.00
2022-08-10T16:19:57.776Z,22.80
2022-08-10T16:22:36.706Z,22.70
2022-08-10T16:25:14.218Z,22.70
2022-08-10T16:27:43.228Z,22.70
2022-08-10T16:30:10.757Z,22.70
2022-08-10T16:32:39.519Z,22.70
2022-08-10T16:35:09.725Z,22.60
2022-08-10T16:37:58.147Z,22.50
2022-08-10T16:40:29.195Z,22.40
2022-08-10T16:42:58.568Z,22.30
2022-08-10T16:45:45.823Z,22.30
2022-08-10T16:48:48.710Z,22.20
2022-08-10T16:51:10.139Z,22.20
2022-08-10T16:53:47.785Z,22.30
2022-08-10T16:56:15.825Z,22.40
2022-08-10T16:58:53.845Z,22.30
2022-08-10T17:01:24.623Z,22.30
2022-08-10T17:04:07.744Z,22.30
2022-08-10T17:06:41.155Z,22.40
2022-08-10T17:09:18.853Z,22.50
2022-08-10T17:11:52.345Z,22.50
2022-08-10T17:14:24.063Z,22.60
2022-08-10T17:17:02.664Z,22.60
2022-08-10T17:19:35.668Z,22.60
2022-08-10T17:22:09.667Z,22.60
2022-08-10T17:24:43.720Z,22.60
2022-08-10T17:28:04.007Z,22.60
2022-08-10T17:30:09.846Z,22.60
2022-08-10T17:33:06.752Z,22.60
2022-08-10T17:35:36.024Z,22.60
2022-08-10T17:38:08.582Z,22.60
2022-08-10T17:40:55.647Z,22.60
2022-08-10T17:43:46.276Z,22.60
2022-08-10T17:46:13.981Z,22.60
2022-08-10T17:48:42.872Z,22.50
2022-08-10T17:51:12.329Z,22.50
2022-08-10T17:53:46.632Z,22.50
2022-08-10T17:56:15.785Z,22.60
2022-08-10T17:58:57.493Z,22.50
2022-08-10T18:01:40.312Z,22.50
2022-08-10T18:04:15.140Z,22.50
2022-08-10T18:06:43.922Z,22.40
2022-08-10T18:09:24.206Z,22.40
2022-08-10T18:11:59.154Z,22.30
2022-08-10T18:14:30.995Z,22.30
2022-08-10T18:16:58.972Z,22.20
2022-08-10T18:19:29.857Z,22.20
2022-08-10T18:21:57.980Z,22.20
2022-08-10T18:24:28.691Z,22.10
2022-08-10T18:26:56.678Z,22.10
2022-08-10T18:29:27.792Z,22.10
2022-08-10T18:32:01.812Z,22.10
2022-08-10T18:34:31.479Z,22.00
2022-08-10T18:36:59.011Z,21.80
2022-08-10T18:39:33.839Z,21.70
2022-08-10T18:42:13.893Z,21.60
2022-08-10T18:44:44.813Z,21.50
2022-08-10T18:47:32.792Z,21.40
2022-08-10T18:50:11.684Z,21.30
2022-08-10T18:52:41.647Z,21.30
2022-08-10T18:55:24.597Z,21.30
2022-08-10T18:58:12.559Z,21.30
2022-08-10T19:01:01.508Z,21.30
2022-08-10T19:03:37.605Z,21.40
2022-08-10T19:06:38.673Z,21.40
2022-08-10T19:09:47.042Z,21.40
2022-08-10T19:12:31.536Z,21.50
2022-08-10T19:15:29.546Z,21.50
2022-08-10T19:18:12.538Z,21.60
2022-08-10T19:20:54.467Z,21.60
2022-08-10T19:23:37.845Z,21.60
2022-08-10T19:26:44.365Z,21.50
2022-08-10T19:30:08.254Z,21.40
2022-08-10T19:32:49.443Z,21.30
2022-08-10T19:36:05.476Z,21.30
2022-08-10T19:38:50.240Z,21.30
2022-08-10T19:41:41.884Z,21.20
2022-08-10T19:44:51.282Z,21.20
2022-08-10T19:47:47.274Z,21.20
2022-08-10T19:50:35.164Z,21.10
2022-08-10T19:53:14.344Z,21.10
2022-08-10T19:55:54.230Z,21.10
2022-08-10T19:58:42.039Z,21.10
2022-08-10T20:01:08.912Z,21.10
2022-08-10T20:03:41.470Z,21.10
2022-08-10T20:06:20.548Z,21.00
2022-08-10T20:09:10.593Z,21.00
2022-08-10T20:11:58.938Z,20.90
2022-08-10T20:15:10.082Z,20.90
2022-08-10T20:17:59.794Z,20.90
2022-08-10T20:20:38.250Z,20.90
2022-08-10T20:23:12.593Z,20.90
2022-08-10T20:25:42.431Z,20.90
2022-08-10T20:28:18.566Z,20.80
2022-08-10T20:30:58.734Z,20.80
2022-08-10T20:33:38.239Z,20.80
2022-08-10T20:36:32.623Z,20.80
2022-08-10T20:39:11.852Z,20.80
2022-08-10T20:41:57.946Z,20.80
2022-08-10T20:44:49.600Z,20.80
2022-08-10T20:47:22.164Z,20.80
2022-08-10T20:50:06.423Z,20.80
2022-08-10T20:52:35.297Z,20.80
2022-08-10T20:55:11.369Z,20.80
2022-08-10T20:57:59.426Z,20.80
2022-08-10T21:01:06.380Z,20.80
2022-08-10T21:03:44.986Z,20.80
2022-08-10T21:06:43.872Z,20.80
2022-08-10T21:09:23.344Z,20.80
2022-08-10T21:12:27.420Z,20.70
2022-08-10T21:15:23.600Z,20.70
2022-08-10T21:18:05.455Z,20.70
2022-08-10T21:20:47.320Z,20.70
2022-08-10T21:23:16.641Z,20.70
2022-08-10T21:26:29.457Z,20.70
2022-08-10T21:29:05.936Z,20.70
2022-08-10T21:31:55.282Z,20.70
2022-08-10T21:34:54.432Z,20.70
2022-08-10T21:37:40.364Z,20.70
2022-08-10T21:40:41.291Z,20.70
2022-08-10T21:43:51.740Z,20.70
2022-08-10T21:46:55.021Z,20.60
2022-08-10T21:50:18.029Z,20.60
2022-08-10T21:53:43.605Z,20.60
2022-08-10T21:57:00.531Z,20.60
2022-08-10T21:59:58.736Z,20.50
2022-08-10T22:02:50.386Z,20.50
2022-08-10T22:05:47.953Z,20.30
2022-08-10T22:08:38.359Z,20.30
2022-08-10T22:11:27.888Z,20.20
2022-08-10T22:14:14.448Z,20.30
2022-08-10T22:18:01.150Z,20.10
2022-08-10T22:20:25.090Z,20.00
2022-08-10T22:23:29.424Z,19.90
2022-08-10T22:27:01.021Z,19.90
2022-08-10T22:29:54.779Z,19.90
2022-08-10T22:32:55.781Z,19.90
2022-08-10T22:36:00.589Z,19.80
2022-08-10T22:40:07.197Z,19.80
2022-08-10T22:42:58.335Z,19.80
2022-08-10T22:45:43.644Z,19.80
2022-08-10T22:48:29.658Z,19.80
2022-08-10T22:51:15.056Z,19.80
2022-08-10T22:54:06.661Z,19.80
2022-08-10T22:56:57.298Z,19.80
2022-08-10T22:59:29.905Z,19.80
2022-08-10T23:02:09.637Z,19.80
2022-08-10T23:04:52.283Z,19.70
2022-08-10T23:07:26.074Z,19.80
2022-08-10T23:10:06.362Z,19.80
2022-08-10T23:12:40.610Z,19.80
2022-08-10T23:15:35.287Z,19.80
2022-08-10T23:18:25.169Z,19.80
2022-08-10T23:20:53.855Z,19.80
2022-08-10T23:23:23.441Z,19.80
2022-08-10T23:25:57.483Z,19.80
2022-08-10T23:28:39.096Z,19.70
2022-08-10T23:31:16.011Z,19.70
2022-08-10T23:33:46.051Z,19.60
2022-08-10T23:36:34.464Z,19.50
2022-08-10T23:39:27.415Z,19.40
2022-08-10T23:41:57.324Z,19.40
2022-08-10T23:44:27.318Z,19.40
2022-08-10T23:46:54.579Z,19.40
2022-08-10T23:49:23.291Z,19.40
2022-08-10T23:51:55.964Z,19.50
2022-08-10T23:54:25.057Z,19.40
2022-08-10T23:57:01.127Z,19.40
2022-08-10T23:59:31.821Z,19.50
